sensor_id;sensor_type;location;lat;lon;timestamp;pressure;altitude;pressure_sealevel;temperature;humidity
550;BME280;20066;48.764;9.176;2023-04-01T00:02:07;96865.84;;;9.77;71.65
550;BME280;20066;48.764;9.176;2023-04-01T00:04:42;96855.97;;;9.70;70.93
550;BME280;20066;48.764;9.176;2023-04-01T00:07:10;96854.75;;;9.75;71.50
550;BME280;20066;48.764;9.176;2023-04-01T00:09:38;96861.25;;;9.54;71.88
550;BME280;20066;48.764;9.176;2023-04-01T00:12:06;96861.00;;;9.68;70.83
550;BME280;20066;48.764;9.176;2023-04-01T00:14:35;96859.66;;;9.80;71.58
550;BME280;20066;48.764;9.176;2023-04-01T00:17:03;96864.41;;;9.92;70.45
550;BME280;20066;48.764;9.176;2023-04-01T00:19:31;96865.53;;;10.14;70.40
550;BME280;20066;48.764;9.176;2023-04-01T00:21:59;96858.91;;;9.99;70.80
550;BME280;20066;48.764;9.176;2023-04-01T00:24:30;96855.06;;;10.00;70.52
550;BME280;20066;48.764;9.176;2023-04-01T00:26:57;96851.53;;;9.60;72.30
550;BME280;20066;48.764;9.176;2023-04-01T00:29:25;96857.78;;;9.96;70.83
550;BME280;20066;48.764;9.176;2023-04-01T00:31:57;96857.31;;;10.25;70.14
550;BME280;20066;48.764;9.176;2023-04-01T00:34:25;96865.31;;;9.85;70.05
550;BME280;20066;48.764;9.176;2023-04-01T00:36:52;96861.53;;;9.59;72.51
550;BME280;20066;48.764;9.176;2023-04-01T00:39:21;96869.34;;;9.50;71.96
550;BME280;20066;48.764;9.176;2023-04-01T00:41:49;96868.38;;;9.41;72.90
550;BME280;20066;48.764;9.176;2023-04-01T00:44:19;96874.00;;;10.13;69.43
550;BME280;20066;48.764;9.176;2023-04-01T00:46:48;96871.84;;;9.61;72.24
550;BME280;20066;48.764;9.176;2023-04-01T00:49:19;96879.84;;;9.88;71.55
550;BME280;20066;48.764;9.176;2023-04-01T00:51:52;96866.63;;;9.74;72.92
550;BME280;20066;48.764;9.176;2023-04-01T00:54:22;96870.94;;;9.91;73.02
550;BME280;20066;48.764;9.176;2023-04-01T00:56:55;96873.50;;;9.98;72.79
550;BME280;20066;48.764;9.176;2023-04-01T00:59:26;96870.34;;;9.60;73.18
550;BME280;20066;48.764;9.176;2023-04-01T01:01:55;96876.13;;;10.01;72.46
550;BME280;20066;48.764;9.176;2023-04-01T01:04:26;96875.94;;;9.69;74.36
550;BME280;20066;48.764;9.176;2023-04-01T01:07:06;96878.91;;;9.51;75.39
550;BME280;20066;48.764;9.176;2023-04-01T01:09:44;96870.81;;;9.55;75.88
550;BME280;20066;48.764;9.176;2023-04-01T01:12:14;96865.31;;;9.62;76.03
550;BME280;20066;48.764;9.176;2023-04-01T01:14:53;96863.91;;;9.54;76.21
550;BME280;20066;48.764;9.176;2023-04-01T01:17:29;96859.66;;;9.80;75.95
550;BME280;20066;48.764;9.176;2023-04-01T01:20:20;96864.16;;;9.40;76.72
550;BME280;20066;48.764;9.176;2023-04-01T01:25:47;96857.16;;;9.46;76.36
550;BME280;20066;48.764;9.176;2023-04-01T01:28:31;96864.91;;;9.17;77.28
550;BME280;20066;48.764;9.176;2023-04-01T01:31:10;96865.09;;;9.53;75.42
550;BME280;20066;48.764;9.176;2023-04-01T01:33:52;96865.50;;;9.51;76.04
550;BME280;20066;48.764;9.176;2023-04-01T01:36:29;96869.28;;;9.54;75.83
550;BME280;20066;48.764;9.176;2023-04-01T01:39:01;96856.56;;;9.58;76.69
550;BME280;20066;48.764;9.176;2023-04-01T01:41:34;96873.41;;;9.58;76.18
550;BME280;20066;48.764;9.176;2023-04-01T01:44:07;96867.13;;;9.45;76.58
550;BME280;20066;48.764;9.176;2023-04-01T01:46:36;96875.56;;;9.20;76.51
550;BME280;20066;48.764;9.176;2023-04-01T01:49:07;96870.22;;;9.44;76.70
550;BME280;20066;48.764;9.176;2023-04-01T01:51:43;96870.69;;;9.39;75.69
550;BME280;20066;48.764;9.176;2023-04-01T01:54:12;96870.16;;;9.24;78.05
550;BME280;20066;48.764;9.176;2023-04-01T01:56:41;96861.34;;;9.47;76.49
550;BME280;20066;48.764;9.176;2023-04-01T01:59:11;96866.97;;;9.33;76.31
550;BME280;20066;48.764;9.176;2023-04-01T02:01:43;96856.97;;;9.80;74.28
550;BME280;20066;48.764;9.176;2023-04-01T02:04:13;96855.91;;;9.50;76.44
550;BME280;20066;48.764;9.176;2023-04-01T02:06:47;96851.72;;;9.26;76.55
550;BME280;20066;48.764;9.176;2023-04-01T02:09:18;96854.19;;;9.63;75.42
550;BME280;20066;48.764;9.176;2023-04-01T02:11:49;96851.25;;;9.31;76.80
550;BME280;20066;48.764;9.176;2023-04-01T02:14:20;96864.44;;;9.45;75.63
550;BME280;20066;48.764;9.176;2023-04-01T02:16:51;96860.22;;;9.21;76.40
550;BME280;20066;48.764;9.176;2023-04-01T02:19:22;96863.00;;;9.64;74.90
550;BME280;20066;48.764;9.176;2023-04-01T02:21:57;96855.88;;;9.30;75.52
550;BME280;20066;48.764;9.176;2023-04-01T02:24:28;96864.72;;;9.74;72.98
550;BME280;20066;48.764;9.176;2023-04-01T02:26:58;96862.66;;;9.82;73.66
550;BME280;20066;48.764;9.176;2023-04-01T02:29:26;96871.72;;;9.45;74.09
550;BME280;20066;48.764;9.176;2023-04-01T02:31:55;96874.41;;;9.68;72.95
550;BME280;20066;48.764;9.176;2023-04-01T02:34:23;96870.44;;;9.53;73.88
550;BME280;20066;48.764;9.176;2023-04-01T02:36:53;96866.75;;;9.20;74.72
550;BME280;20066;48.764;9.176;2023-04-01T02:39:22;96863.50;;;9.55;74.27
550;BME280;20066;48.764;9.176;2023-04-01T02:41:52;96869.75;;;9.72;71.84
550;BME280;20066;48.764;9.176;2023-04-01T02:44:20;96860.69;;;9.16;73.85
550;BME280;20066;48.764;9.176;2023-04-01T02:46:49;96868.38;;;9.64;72.58
550;BME280;20066;48.764;9.176;2023-04-01T02:49:17;96870.59;;;9.19;74.08
550;BME280;20066;48.764;9.176;2023-04-01T02:51:44;96870.16;;;9.71;72.72
550;BME280;20066;48.764;9.176;2023-04-01T02:54:13;96869.19;;;10.24;68.99
550;BME280;20066;48.764;9.176;2023-04-01T02:56:41;96864.72;;;9.51;72.44
550;BME280;20066;48.764;9.176;2023-04-01T02:59:09;96864.53;;;9.15;73.49
550;BME280;20066;48.764;9.176;2023-04-01T03:01:37;96858.59;;;9.27;73.84
550;BME280;20066;48.764;9.176;2023-04-01T03:04:05;96867.91;;;9.19;73.42
550;BME280;20066;48.764;9.176;2023-04-01T03:06:32;96868.00;;;9.39;73.18
550;BME280;20066;48.764;9.176;2023-04-01T03:09:00;96866.16;;;9.09;73.10
550;BME280;20066;48.764;9.176;2023-04-01T03:11:29;96865.41;;;9.08;73.50
550;BME280;20066;48.764;9.176;2023-04-01T03:13:57;96863.09;;;9.34;72.45
550;BME280;20066;48.764;9.176;2023-04-01T03:16:24;96869.53;;;9.13;73.51
550;BME280;20066;48.764;9.176;2023-04-01T03:18:52;96879.59;;;9.32;72.81
550;BME280;20066;48.764;9.176;2023-04-01T03:21:23;96871.22;;;9.03;73.33
550;BME280;20066;48.764;9.176;2023-04-01T03:23:51;96862.97;;;9.17;74.02
550;BME280;20066;48.764;9.176;2023-04-01T03:26:19;96863.81;;;9.11;74.36
550;BME280;20066;48.764;9.176;2023-04-01T03:28:49;96871.22;;;9.03;72.93
550;BME280;20066;48.764;9.176;2023-04-01T03:31:16;96870.44;;;9.29;72.74
550;BME280;20066;48.764;9.176;2023-04-01T03:33:47;96866.97;;;9.33;73.02
550;BME280;20066;48.764;9.176;2023-04-01T03:36:14;96856.56;;;8.84;73.84
550;BME280;20066;48.764;9.176;2023-04-01T03:38:43;96858.97;;;8.75;74.10
550;BME280;20066;48.764;9.176;2023-04-01T03:41:12;96855.13;;;9.03;72.46
550;BME280;20066;48.764;9.176;2023-04-01T03:43:40;96858.56;;;9.04;71.46
550;BME280;20066;48.764;9.176;2023-04-01T03:46:09;96866.34;;;9.21;71.84
550;BME280;20066;48.764;9.176;2023-04-01T03:48:37;96870.56;;;9.46;70.32
550;BME280;20066;48.764;9.176;2023-04-01T03:51:06;96872.13;;;9.43;70.18
550;BME280;20066;48.764;9.176;2023-04-01T03:53:34;96853.63;;;9.02;71.28
550;BME280;20066;48.764;9.176;2023-04-01T03:56:04;96861.50;;;9.13;71.46
550;BME280;20066;48.764;9.176;2023-04-01T03:58:32;96853.34;;;9.20;70.69
550;BME280;20066;48.764;9.176;2023-04-01T04:00:59;96855.47;;;9.05;71.03
550;BME280;20066;48.764;9.176;2023-04-01T04:03:28;96842.94;;;8.72;71.62
550;BME280;20066;48.764;9.176;2023-04-01T04:05:56;96855.97;;;8.97;71.01
550;BME280;20066;48.764;9.176;2023-04-01T04:08:24;96843.34;;;8.67;71.63
550;BME280;20066;48.764;9.176;2023-04-01T04:10:56;96848.91;;;8.83;71.47
550;BME280;20066;48.764;9.176;2023-04-01T04:13:24;96844.19;;;8.90;71.25
550;BME280;20066;48.764;9.176;2023-04-01T04:15:51;96845.09;;;8.80;70.76
550;BME280;20066;48.764;9.176;2023-04-01T04:18:21;96837.47;;;8.48;72.20
550;BME280;20066;48.764;9.176;2023-04-01T04:20:50;96850.56;;;9.00;70.76
550;BME280;20066;48.764;9.176;2023-04-01T04:23:18;96842.13;;;8.75;71.18
550;BME280;20066;48.764;9.176;2023-04-01T04:25:54;96836.47;;;8.66;71.33
550;BME280;20066;48.764;9.176;2023-04-01T04:28:22;96848.25;;;8.75;71.23
550;BME280;20066;48.764;9.176;2023-04-01T04:30:50;96838.38;;;8.69;71.31
550;BME280;20066;48.764;9.176;2023-04-01T04:33:18;96836.09;;;8.67;72.06
550;BME280;20066;48.764;9.176;2023-04-01T04:35:46;96845.06;;;8.53;72.82
550;BME280;20066;48.764;9.176;2023-04-01T04:38:15;96850.69;;;8.93;70.59
550;BME280;20066;48.764;9.176;2023-04-01T04:40:43;96845.94;;;8.77;71.26
550;BME280;20066;48.764;9.176;2023-04-01T04:43:15;96836.41;;;8.73;72.19
550;BME280;20066;48.764;9.176;2023-04-01T04:45:43;96846.44;;;8.65;71.59
550;BME280;20066;48.764;9.176;2023-04-01T04:48:14;96846.84;;;8.64;72.35
550;BME280;20066;48.764;9.176;2023-04-01T04:50:46;96845.34;;;8.63;73.00
550;BME280;20066;48.764;9.176;2023-04-01T04:53:18;96850.06;;;8.51;73.30
550;BME280;20066;48.764;9.176;2023-04-01T04:55:47;96846.53;;;8.58;72.44
550;BME280;20066;48.764;9.176;2023-04-01T04:58:19;96841.53;;;8.60;73.82
550;BME280;20066;48.764;9.176;2023-04-01T05:00:47;96840.19;;;8.45;74.52
550;BME280;20066;48.764;9.176;2023-04-01T05:03:15;96839.56;;;8.64;73.12
550;BME280;20066;48.764;9.176;2023-04-01T05:05:48;96841.31;;;8.78;73.03
550;BME280;20066;48.764;9.176;2023-04-01T05:08:18;96833.03;;;8.65;74.04
550;BME280;20066;48.764;9.176;2023-04-01T05:10:46;96829.34;;;8.25;75.50
550;BME280;20066;48.764;9.176;2023-04-01T05:13:14;96824.03;;;8.22;75.60
550;BME280;20066;48.764;9.176;2023-04-01T05:15:42;96822.91;;;8.80;73.51
550;BME280;20066;48.764;9.176;2023-04-01T05:18:09;96816.28;;;8.88;74.05
550;BME280;20066;48.764;9.176;2023-04-01T05:20:37;96819.47;;;8.49;74.51
550;BME280;20066;48.764;9.176;2023-04-01T05:23:05;96820.50;;;9.12;73.30
550;BME280;20066;48.764;9.176;2023-04-01T05:25:37;96816.94;;;8.69;73.46
550;BME280;20066;48.764;9.176;2023-04-01T05:28:07;96806.31;;;9.12;72.36
550;BME280;20066;48.764;9.176;2023-04-01T05:30:39;96814.19;;;8.99;73.06
550;BME280;20066;48.764;9.176;2023-04-01T05:33:07;96812.22;;;9.03;72.60
550;BME280;20066;48.764;9.176;2023-04-01T05:35:35;96817.72;;;8.66;74.33
550;BME280;20066;48.764;9.176;2023-04-01T05:38:03;96816.03;;;9.29;72.05
550;BME280;20066;48.764;9.176;2023-04-01T05:40:34;96820.38;;;8.96;72.43
550;BME280;20066;48.764;9.176;2023-04-01T05:43:04;96820.38;;;9.19;70.62
550;BME280;20066;48.764;9.176;2023-04-01T05:45:31;96797.41;;;8.68;72.49
550;BME280;20066;48.764;9.176;2023-04-01T05:48:00;96811.38;;;9.10;71.88
550;BME280;20066;48.764;9.176;2023-04-01T05:50:27;96804.75;;;8.91;71.93
550;BME280;20066;48.764;9.176;2023-04-01T05:52:55;96798.59;;;9.41;70.07
550;BME280;20066;48.764;9.176;2023-04-01T05:55:23;96813.94;;;9.17;70.97
550;BME280;20066;48.764;9.176;2023-04-01T05:57:52;96815.97;;;9.09;70.62
550;BME280;20066;48.764;9.176;2023-04-01T06:00:20;96809.34;;;9.60;68.65
550;BME280;20066;48.764;9.176;2023-04-01T06:02:48;96806.69;;;9.37;69.17
550;BME280;20066;48.764;9.176;2023-04-01T06:05:18;96807.03;;;8.93;70.49
550;BME280;20066;48.764;9.176;2023-04-01T06:07:47;96804.59;;;9.25;69.21
550;BME280;20066;48.764;9.176;2023-04-01T06:10:17;96790.28;;;9.55;68.19
550;BME280;20066;48.764;9.176;2023-04-01T06:13:02;96781.16;;;9.72;67.19
550;BME280;20066;48.764;9.176;2023-04-01T06:15:36;96788.31;;;9.12;68.22
550;BME280;20066;48.764;9.176;2023-04-01T06:18:41;96787.06;;;9.63;66.87
550;BME280;20066;48.764;9.176;2023-04-01T06:24:30;96785.31;;;9.53;66.36
550;BME280;20066;48.764;9.176;2023-04-01T06:27:07;96794.94;;;9.94;66.33
550;BME280;20066;48.764;9.176;2023-04-01T06:29:48;96787.63;;;9.94;66.14
550;BME280;20066;48.764;9.176;2023-04-01T06:32:48;96786.31;;;9.83;66.30
550;BME280;20066;48.764;9.176;2023-04-01T06:35:37;96796.69;;;9.81;66.05
550;BME280;20066;48.764;9.176;2023-04-01T06:38:24;96801.72;;;10.74;62.90
550;BME280;20066;48.764;9.176;2023-04-01T06:41:18;96796.03;;;9.77;65.02
550;BME280;20066;48.764;9.176;2023-04-01T06:44:07;96801.69;;;10.41;64.60
550;BME280;20066;48.764;9.176;2023-04-01T06:47:07;96808.09;;;10.48;63.92
550;BME280;20066;48.764;9.176;2023-04-01T06:49:46;96800.59;;;10.39;64.43
550;BME280;20066;48.764;9.176;2023-04-01T06:52:25;96800.78;;;10.08;65.52
550;BME280;20066;48.764;9.176;2023-04-01T06:54:59;96795.66;;;9.75;66.84
550;BME280;20066;48.764;9.176;2023-04-01T06:57:32;96790.28;;;9.55;67.49
550;BME280;20066;48.764;9.176;2023-04-01T07:00:04;96798.44;;;10.11;65.40
550;BME280;20066;48.764;9.176;2023-04-01T07:02:44;96797.19;;;10.35;64.62
550;BME280;20066;48.764;9.176;2023-04-01T07:05:16;96798.03;;;10.32;65.05
550;BME280;20066;48.764;9.176;2023-04-01T07:07:50;96809.06;;;11.06;63.13
550;BME280;20066;48.764;9.176;2023-04-01T07:10:31;96798.13;;;9.65;66.69
550;BME280;20066;48.764;9.176;2023-04-01T07:13:05;96799.53;;;10.13;65.52
550;BME280;20066;48.764;9.176;2023-04-01T07:15:39;96808.53;;;10.26;64.76
550;BME280;20066;48.764;9.176;2023-04-01T07:18:14;96804.03;;;10.39;65.14
550;BME280;20066;48.764;9.176;2023-04-01T07:20:44;96810.22;;;10.36;65.68
550;BME280;20066;48.764;9.176;2023-04-01T07:23:16;96807.38;;;10.63;65.24
550;BME280;20066;48.764;9.176;2023-04-01T07:25:52;96815.53;;;10.76;65.01
550;BME280;20066;48.764;9.176;2023-04-01T07:28:23;96823.13;;;11.13;64.07
550;BME280;20066;48.764;9.176;2023-04-01T07:31:10;96817.88;;;9.98;66.43
550;BME280;20066;48.764;9.176;2023-04-01T07:33:58;96822.53;;;10.14;66.78
550;BME280;20066;48.764;9.176;2023-04-01T07:36:33;96824.25;;;10.04;66.25
550;BME280;20066;48.764;9.176;2023-04-01T07:39:10;96823.22;;;10.94;63.74
550;BME280;20066;48.764;9.176;2023-04-01T07:41:49;96842.06;;;9.75;67.13
550;BME280;20066;48.764;9.176;2023-04-01T07:44:25;96824.34;;;10.21;65.87
550;BME280;20066;48.764;9.176;2023-04-01T07:47:06;96831.00;;;10.13;66.85
550;BME280;20066;48.764;9.176;2023-04-01T07:49:46;96831.72;;;10.36;65.55
550;BME280;20066;48.764;9.176;2023-04-01T07:52:23;96833.06;;;11.33;63.37
550;BME280;20066;48.764;9.176;2023-04-01T07:54:57;96838.25;;;10.91;63.75
550;BME280;20066;48.764;9.176;2023-04-01T07:57:33;96833.34;;;10.34;65.51
550;BME280;20066;48.764;9.176;2023-04-01T08:00:11;96831.53;;;10.47;66.13
550;BME280;20066;48.764;9.176;2023-04-01T08:03:03;96826.75;;;11.07;63.73
550;BME280;20066;48.764;9.176;2023-04-01T08:05:41;96824.28;;;10.44;65.83
550;BME280;20066;48.764;9.176;2023-04-01T08:08:18;96827.41;;;10.95;64.58
550;BME280;20066;48.764;9.176;2023-04-01T08:10:49;96821.66;;;10.76;63.85
550;BME280;20066;48.764;9.176;2023-04-01T08:13:29;96832.88;;;10.55;64.55
550;BME280;20066;48.764;9.176;2023-04-01T08:16:08;96820.13;;;10.59;65.35
550;BME280;20066;48.764;9.176;2023-04-01T08:18:44;96836.31;;;11.08;64.42
550;BME280;20066;48.764;9.176;2023-04-01T08:21:17;96825.84;;;10.22;65.64
550;BME280;20066;48.764;9.176;2023-04-01T08:23:51;96823.50;;;10.24;66.28
550;BME280;20066;48.764;9.176;2023-04-01T08:26:29;96824.34;;;10.21;67.58
550;BME280;20066;48.764;9.176;2023-04-01T08:29:01;96832.34;;;10.44;67.88
550;BME280;20066;48.764;9.176;2023-04-01T08:31:37;96838.56;;;10.41;66.60
550;BME280;20066;48.764;9.176;2023-04-01T08:34:15;96836.53;;;10.65;66.67
550;BME280;20066;48.764;9.176;2023-04-01T08:36:56;96841.78;;;10.52;67.49
550;BME280;20066;48.764;9.176;2023-04-01T08:39:30;96836.69;;;10.38;67.47
550;BME280;20066;48.764;9.176;2023-04-01T08:42:16;96849.13;;;11.04;67.05
550;BME280;20066;48.764;9.176;2023-04-01T08:48:07;96844.19;;;10.07;70.56
550;BME280;20066;48.764;9.176;2023-04-01T08:51:08;96856.13;;;10.26;70.09
550;BME280;20066;48.764;9.176;2023-04-01T08:53:54;96836.47;;;10.29;71.20
550;BME280;20066;48.764;9.176;2023-04-01T08:56:27;96821.22;;;10.26;70.78
550;BME280;20066;48.764;9.176;2023-04-01T08:59:14;96828.25;;;9.96;72.67
550;BME280;20066;48.764;9.176;2023-04-01T09:01:55;96830.25;;;9.92;71.34
550;BME280;20066;48.764;9.176;2023-04-01T09:04:42;96828.75;;;10.11;71.29
550;BME280;20066;48.764;9.176;2023-04-01T09:07:28;96845.00;;;10.04;71.21
550;BME280;20066;48.764;9.176;2023-04-01T09:13:24;96844.31;;;10.00;71.49
550;BME280;20066;48.764;9.176;2023-04-01T09:16:16;96842.31;;;10.63;69.29
550;BME280;20066;48.764;9.176;2023-04-01T09:18:57;96845.06;;;10.00;70.15
550;BME280;20066;48.764;9.176;2023-04-01T09:25:05;96852.66;;;10.65;68.22
550;BME280;20066;48.764;9.176;2023-04-01T09:27:44;96849.25;;;10.25;68.68
550;BME280;20066;48.764;9.176;2023-04-01T09:30:41;96847.44;;;10.38;67.43
550;BME280;20066;48.764;9.176;2023-04-01T09:36:28;96860.56;;;11.40;65.29
550;BME280;20066;48.764;9.176;2023-04-01T09:39:17;96851.13;;;11.16;65.79
550;BME280;20066;48.764;9.176;2023-04-01T09:41:57;96854.25;;;11.47;64.63
550;BME280;20066;48.764;9.176;2023-04-01T09:44:34;96854.53;;;10.48;66.36
550;BME280;20066;48.764;9.176;2023-04-01T09:47:14;96853.28;;;10.72;67.04
550;BME280;20066;48.764;9.176;2023-04-01T09:49:57;96860.47;;;11.28;64.38
550;BME280;20066;48.764;9.176;2023-04-01T09:52:38;96869.16;;;11.68;62.79
550;BME280;20066;48.764;9.176;2023-04-01T09:55:29;96867.63;;;10.46;65.85
550;BME280;20066;48.764;9.176;2023-04-01T10:01:33;96878.75;;;10.84;65.67
550;BME280;20066;48.764;9.176;2023-04-01T10:04:54;96871.44;;;10.84;65.53
550;BME280;20066;48.764;9.176;2023-04-01T10:07:55;96878.81;;;10.25;66.98
550;BME280;20066;48.764;9.176;2023-04-01T10:10:53;96879.19;;;10.63;65.01
550;BME280;20066;48.764;9.176;2023-04-01T10:13:49;96880.00;;;10.20;65.72
550;BME280;20066;48.764;9.176;2023-04-01T10:16:53;96880.88;;;10.57;65.70
550;BME280;20066;48.764;9.176;2023-04-01T10:19:59;96878.50;;;10.78;65.17
550;BME280;20066;48.764;9.176;2023-04-01T10:23:07;96873.34;;;11.36;62.19
550;BME280;20066;48.764;9.176;2023-04-01T10:25:57;96869.88;;;11.52;61.46
550;BME280;20066;48.764;9.176;2023-04-01T10:38:37;96888.31;;;11.86;59.86
550;BME280;20066;48.764;9.176;2023-04-01T10:41:26;96884.09;;;11.85;60.82
550;BME280;20066;48.764;9.176;2023-04-01T10:44:34;96882.94;;;11.86;58.87
550;BME280;20066;48.764;9.176;2023-04-01T10:47:26;96880.63;;;12.29;57.78
550;BME280;20066;48.764;9.176;2023-04-01T10:50:31;96874.25;;;11.94;59.32
550;BME280;20066;48.764;9.176;2023-04-01T10:53:35;96892.91;;;11.73;60.24
550;BME280;20066;48.764;9.176;2023-04-01T10:56:33;96881.38;;;12.30;58.62
550;BME280;20066;48.764;9.176;2023-04-01T10:59:24;96881.81;;;11.02;60.25
550;BME280;20066;48.764;9.176;2023-04-01T11:02:36;96868.13;;;10.77;60.65
550;BME280;20066;48.764;9.176;2023-04-01T11:05:51;96890.88;;;10.92;61.30
550;BME280;20066;48.764;9.176;2023-04-01T11:15:12;96879.47;;;11.20;59.33
550;BME280;20066;48.764;9.176;2023-04-01T11:18:24;96892.50;;;11.22;59.87
550;BME280;20066;48.764;9.176;2023-04-01T11:24:39;96893.09;;;12.11;57.72
550;BME280;20066;48.764;9.176;2023-04-01T11:27:25;96889.84;;;11.87;57.35
550;BME280;20066;48.764;9.176;2023-04-01T11:30:09;96873.84;;;11.80;57.49
550;BME280;20066;48.764;9.176;2023-04-01T11:32:52;96886.56;;;12.66;56.21
550;BME280;20066;48.764;9.176;2023-04-01T11:35:32;96901.25;;;12.77;55.45
550;BME280;20066;48.764;9.176;2023-04-01T11:38:15;96880.34;;;12.40;56.10
550;BME280;20066;48.764;9.176;2023-04-01T11:40:52;96898.81;;;12.54;55.97
550;BME280;20066;48.764;9.176;2023-04-01T11:43:31;96905.72;;;12.43;56.06
550;BME280;20066;48.764;9.176;2023-04-01T11:46:07;96900.38;;;11.81;57.38
550;BME280;20066;48.764;9.176;2023-04-01T11:48:50;96892.84;;;12.34;55.92
550;BME280;20066;48.764;9.176;2023-04-01T11:51:40;96891.50;;;12.55;55.73
550;BME280;20066;48.764;9.176;2023-04-01T11:54:23;96910.69;;;11.99;57.30
550;BME280;20066;48.764;9.176;2023-04-01T11:57:04;96896.88;;;12.55;56.26
550;BME280;20066;48.764;9.176;2023-04-01T11:59:50;96913.03;;;12.13;57.54
550;BME280;20066;48.764;9.176;2023-04-01T12:02:26;96909.03;;;11.40;58.70
550;BME280;20066;48.764;9.176;2023-04-01T12:05:11;96930.44;;;11.28;60.34
550;BME280;20066;48.764;9.176;2023-04-01T12:08:00;96922.84;;;11.42;59.25
550;BME280;20066;48.764;9.176;2023-04-01T12:10:37;96921.63;;;11.59;60.06
550;BME280;20066;48.764;9.176;2023-04-01T12:13:14;96912.16;;;11.87;58.32
550;BME280;20066;48.764;9.176;2023-04-01T12:15:59;96930.25;;;11.71;59.21
550;BME280;20066;48.764;9.176;2023-04-01T12:18:36;96917.72;;;12.25;58.09
550;BME280;20066;48.764;9.176;2023-04-01T12:21:16;96916.75;;;12.03;58.44
550;BME280;20066;48.764;9.176;2023-04-01T12:24:19;96921.19;;;11.29;61.01
550;BME280;20066;48.764;9.176;2023-04-01T12:26:56;96927.53;;;11.54;60.60
550;BME280;20066;48.764;9.176;2023-04-01T12:32:31;96926.47;;;11.84;60.48
550;BME280;20066;48.764;9.176;2023-04-01T12:35:18;96926.84;;;11.18;60.95
550;BME280;20066;48.764;9.176;2023-04-01T12:38:05;96923.75;;;12.01;59.50
550;BME280;20066;48.764;9.176;2023-04-01T12:40:46;96929.06;;;12.33;57.62
550;BME280;20066;48.764;9.176;2023-04-01T12:43:32;96919.81;;;11.89;58.24
550;BME280;20066;48.764;9.176;2023-04-01T12:46:12;96920.63;;;12.02;57.88
550;BME280;20066;48.764;9.176;2023-04-01T12:52:07;96942.88;;;12.64;56.13
550;BME280;20066;48.764;9.176;2023-04-01T12:58:05;96918.19;;;12.08;56.67
550;BME280;20066;48.764;9.176;2023-04-01T13:00:45;96925.97;;;12.34;56.60
550;BME280;20066;48.764;9.176;2023-04-01T13:03:34;96932.34;;;12.41;55.73
550;BME280;20066;48.764;9.176;2023-04-01T13:06:22;96934.66;;;12.55;55.15
550;BME280;20066;48.764;9.176;2023-04-01T13:08:58;96942.84;;;12.93;54.11
550;BME280;20066;48.764;9.176;2023-04-01T13:11:37;96932.06;;;12.93;53.95
550;BME280;20066;48.764;9.176;2023-04-01T13:17:24;96944.53;;;12.74;53.54
550;BME280;20066;48.764;9.176;2023-04-01T13:20:00;96951.84;;;12.90;54.50
550;BME280;20066;48.764;9.176;2023-04-01T13:22:45;96957.47;;;12.66;54.97
550;BME280;20066;48.764;9.176;2023-04-01T13:25:21;96954.25;;;13.13;53.92
550;BME280;20066;48.764;9.176;2023-04-01T13:27:56;96962.97;;;12.75;54.56
550;BME280;20066;48.764;9.176;2023-04-01T13:30:30;96964.22;;;12.13;56.23
550;BME280;20066;48.764;9.176;2023-04-01T13:33:11;96950.00;;;12.99;54.29
550;BME280;20066;48.764;9.176;2023-04-01T13:35:48;96977.81;;;12.55;54.17
550;BME280;20066;48.764;9.176;2023-04-01T13:38:46;96964.88;;;11.88;57.47
550;BME280;20066;48.764;9.176;2023-04-01T13:41:24;96956.66;;;12.53;55.63
550;BME280;20066;48.764;9.176;2023-04-01T13:44:00;96961.56;;;12.71;54.69
550;BME280;20066;48.764;9.176;2023-04-01T13:46:41;96967.53;;;12.79;54.76
550;BME280;20066;48.764;9.176;2023-04-01T13:49:33;96970.69;;;12.61;54.84
550;BME280;20066;48.764;9.176;2023-04-01T13:52:27;96966.97;;;12.42;55.58
550;BME280;20066;48.764;9.176;2023-04-01T13:55:18;96971.41;;;13.32;53.93
550;BME280;20066;48.764;9.176;2023-04-01T13:57:57;96974.81;;;12.94;54.22
550;BME280;20066;48.764;9.176;2023-04-01T14:00:36;96963.22;;;12.52;55.54
550;BME280;20066;48.764;9.176;2023-04-01T14:03:24;96991.09;;;12.62;55.67
550;BME280;20066;48.764;9.176;2023-04-01T14:06:17;96970.00;;;13.14;54.43
550;BME280;20066;48.764;9.176;2023-04-01T14:08:59;96978.13;;;12.86;53.80
550;BME280;20066;48.764;9.176;2023-04-01T14:11:36;96980.91;;;13.24;53.33
550;BME280;20066;48.764;9.176;2023-04-01T14:14:17;96990.25;;;12.94;54.97
550;BME280;20066;48.764;9.176;2023-04-01T14:16:56;96983.91;;;12.71;55.54
550;BME280;20066;48.764;9.176;2023-04-01T14:19:50;96981.94;;;12.88;54.98
550;BME280;20066;48.764;9.176;2023-04-01T14:22:31;96993.38;;;12.34;55.56
550;BME280;20066;48.764;9.176;2023-04-01T14:25:22;97005.34;;;12.33;56.93
550;BME280;20066;48.764;9.176;2023-04-01T14:28:02;96995.47;;;12.43;56.46
550;BME280;20066;48.764;9.176;2023-04-01T14:30:43;97006.53;;;12.61;55.73
550;BME280;20066;48.764;9.176;2023-04-01T14:33:32;97003.94;;;12.58;55.95
550;BME280;20066;48.764;9.176;2023-04-01T14:36:21;96992.00;;;12.71;56.36
550;BME280;20066;48.764;9.176;2023-04-01T14:39:00;96994.03;;;12.22;57.27
550;BME280;20066;48.764;9.176;2023-04-01T14:41:44;96994.03;;;12.22;58.12
550;BME280;20066;48.764;9.176;2023-04-01T14:44:23;96987.06;;;12.09;58.45
550;BME280;20066;48.764;9.176;2023-04-01T14:47:21;96992.66;;;13.04;56.98
550;BME280;20066;48.764;9.176;2023-04-01T14:49:55;96990.72;;;12.76;57.68
550;BME280;20066;48.764;9.176;2023-04-01T14:52:32;96988.75;;;12.93;56.45
550;BME280;20066;48.764;9.176;2023-04-01T14:55:18;96985.94;;;12.22;57.43
550;BME280;20066;48.764;9.176;2023-04-01T14:57:58;96994.06;;;12.96;55.86
550;BME280;20066;48.764;9.176;2023-04-01T15:00:41;96997.50;;;11.90;57.51
550;BME280;20066;48.764;9.176;2023-04-01T15:03:19;96986.03;;;12.64;55.77
550;BME280;20066;48.764;9.176;2023-04-01T15:05:50;96993.31;;;13.08;54.45
550;BME280;20066;48.764;9.176;2023-04-01T15:08:23;96993.97;;;12.84;55.50
550;BME280;20066;48.764;9.176;2023-04-01T15:11:16;96999.34;;;12.71;55.31
550;BME280;20066;48.764;9.176;2023-04-01T15:17:02;97006.09;;;12.63;55.32
550;BME280;20066;48.764;9.176;2023-04-01T15:19:46;97003.34;;;12.79;55.07
550;BME280;20066;48.764;9.176;2023-04-01T15:22:34;97005.28;;;13.07;54.34